Share

Jamestown, NM (87347)

Gallup Municipal (KGUP) Elev 6470 ft | 35.51 °N, 108.79 °W | Change Station

Current weather conditions updated 57 minutes ago

Clear
Clear
52 °F
Feels Like 52 °F
N
7
Wind Variable Wind from North
Sunrise 6:41 AM
Sunset 7:48 PM
Moon Waning Gibbous

Tomorrow is forecast to be nearly the same temperature as today.

Pressure 29.73 in
Visibility 10.0 miles
Clouds Clear
Dew Point 19 °F
Humidity 27%
Rainfall 0.00 in
Snow Depth Not available.
UV 0 out of 16
Pollen 9.80 out of 12
Air Quality Not available.
Flu Activity Local Activity
METAR KGUP 170253Z AUTO 35006KT 10SM CLR 11/M07 A2997 RMK AO2 SLP065 T01111072 53012

More Conditions Fewer Conditions

Pressure 29.73 in
Visibility 10.0 miles
Clouds Clear
Dew Point 19 °F
Humidity 27%
Rainfall 0.00 in
Snow Depth Not available.
UV 0 out of 16
Pollen 9.80 out of 12
Air Quality Not available.
Flu Activity Local Activity
METAR KGUP 170253Z AUTO 35006KT 10SM CLR 11/M07 A2997 RMK AO2 SLP065 T01111072 53012

More Conditions Fewer Conditions

10-Day Forecast

Almanac

Astronomy

Apr. 16, 2014 Rise Set
Actual Time 6:41 AM MDT 7:48 PM MDT
Civil Twilight 6:14 AM MDT 8:15 PM MDT
Nautical Twilight 5:43 AM MDT 8:46 PM MDT
Astronomical Twilight 5:11 AM MDT 9:18 PM MDT
Moon 9:32 PM MDT (4/16) 7:33 AM MDT (4/16)
Length of Visible Light 14h 00m
Length of Day
13h 07m
Tomorrow will be 2m 6s longer.
Waning Gibbous, 96% of the Moon is Illuminated
Today
Waning Gibbous
Apr 22
Last Quarter
Apr 29
New
May 6
First Quarter
May 14
Full

Today's Extremes

State Highs State Lows

Community

  • symphony in blue....
    symphony in blue....
  • Dawn Surprise
    Dawn Surprise
  • Yucca delight
    Yucca delight
  • Sunset inside of the Ocean
    Sunset inside of the Ocean
  • Lunar eclipse 15 April 2014
    Lunar eclipse 15 April 2014

WunderPhotos

Upload Photos

1,701,845 photos uploaded!

WunderBlogs® & News

Nearby

Snow Depth

Station Depth Elevation
Rice Park 0 in 8460 ft
Senorita Divide #2 0 in 8600 ft
Frisco Divide 0 in 8000 ft
Quemazon 1 in 9500 ft
Silver Creek Divide 1 in 9000 ft

Coastal Water Temperatures

Place Temperature
No Stations Reporting

Earthquake Activity

City Distance Mag. Time & Date
No recent earthquake activity has been reported nearby.
Minimum magnitude displayed is 2.5.

Nearby Weather Stations

There are no personal weather stations in this area.

What do you think?

We're not finished. Please let us know what you like, what you don't like, and what you are still missing.